Time;durP1;ratioP1;P1;durP2;ratioP2;P2;SDS_P1;SDS_P2;PMS_P1;PMS_P2;Temp;Humidity;BMP_temperature;BMP_pressure;BME280_temperature;BME280_humidity;BME280_pressure;Samples;Min_cycle;Max_cycle;Signal;HPM_P1;HPM_P2
2021/09/30 00:00:12;;;;;;;9.38;1.10;;;13.30;99.90;;;;;;4841946;29;20423;-82
2021/09/30 00:02:38;;;;;;;7.82;1.40;;;13.30;99.90;;;;;;4841724;29;20041;-83
2021/09/30 00:05:06;;;;;;;5.68;1.20;;;13.20;99.90;;;;;;4840615;29;20037;-83
2021/09/30 00:07:31;;;;;;;11.68;1.58;;;13.20;99.90;;;;;;4822458;29;20110;-83
2021/09/30 00:09:57;;;;;;;6.07;1.23;;;13.20;99.90;;;;;;4841679;29;20079;-82
2021/09/30 00:12:27;;;;;;;8.48;1.20;;;13.10;99.90;;;;;;4838828;29;20031;-82
2021/09/30 00:14:59;;;;;;;6.60;1.58;;;13.10;99.90;;;;;;4841028;29;20052;-82
2021/09/30 00:33:50;;;;;;;13.85;2.47;;;12.80;99.90;;;;;;4840968;29;20047;-83
2021/09/30 00:41:45;;;;;;;8.52;1.83;;;12.80;99.90;;;;;;4841645;29;20041;-81
2021/09/30 00:47:40;;;;;;;10.77;2.00;;;12.70;99.90;;;;;;4802489;29;20031;-81
2021/09/30 00:50:16;;;;;;;7.57;1.67;;;12.70;99.90;;;;;;4839864;29;20141;-82
2021/09/30 02:39:47;;;;;;;11.27;1.85;;;11.60;99.90;;;;;;4859072;29;19920;-85
2021/09/30 02:58:55;;;;;;;10.38;1.73;;;11.60;99.90;;;;;;4858192;29;20037;-83
2021/09/30 03:01:23;;;;;;;7.93;1.42;;;11.60;99.90;;;;;;4855524;29;20024;-82
2021/09/30 03:03:50;;;;;;;8.95;1.13;;;11.60;99.90;;;;;;4839829;29;20109;-82
2021/09/30 03:06:18;;;;;;;6.28;1.20;;;11.60;99.90;;;;;;4824353;29;20037;-90
2021/09/30 03:08:47;;;;;;;11.40;1.30;;;11.50;99.90;;;;;;4840841;29;20105;-88
2021/09/30 03:11:15;;;;;;;6.70;1.35;;;11.50;99.90;;;;;;4834403;29;20556;-82
2021/09/30 03:13:44;;;;;;;6.72;1.15;;;11.50;99.90;;;;;;4839204;29;20037;-82
2021/09/30 03:18:54;;;;;;;5.95;1.20;;;11.50;99.90;;;;;;4839987;29;20054;-82
2021/09/30 03:24:07;;;;;;;3.65;1.02;;;11.40;99.90;;;;;;4847071;29;20037;-82
2021/09/30 03:26:33;;;;;;;9.23;1.55;;;11.40;99.90;;;;;;4835572;29;20489;-81
2021/09/30 03:29:01;;;;;;;10.27;1.13;;;11.30;99.90;;;;;;4828086;29;20034;-83
2021/09/30 03:31:27;;;;;;;7.57;1.15;;;11.30;99.90;;;;;;4824668;29;20060;-85
2021/09/30 03:33:54;;;;;;;4.90;1.45;;;11.30;99.90;;;;;;4831850;29;20022;-83
2021/09/30 03:36:20;;;;;;;6.72;1.10;;;11.30;99.90;;;;;;4841735;29;20547;-82
2021/09/30 03:38:45;;;;;;;6.65;1.27;;;11.30;99.90;;;;;;4836920;29;20057;-82
2021/09/30 03:41:11;;;;;;;10.13;1.20;;;11.20;99.90;;;;;;4825662;29;20050;-82
2021/09/30 03:43:37;;;;;;;3.53;1.20;;;11.20;99.90;;;;;;4835949;29;20027;-82
2021/09/30 03:46:03;;;;;;;5.93;1.02;;;11.20;99.90;;;;;;4831862;29;20463;-82
2021/09/30 03:48:28;;;;;;;7.05;1.40;;;11.10;99.90;;;;;;4825548;29;20037;-82
2021/09/30 03:53:55;;;;;;;8.13;1.60;;;11.10;99.90;;;;;;4826537;29;20429;-82
2021/09/30 03:56:49;;;;;;;5.07;0.95;;;11.00;99.90;;;;;;4831359;29;20507;-82
2021/09/30 03:59:20;;;;;;;5.90;1.02;;;11.00;99.90;;;;;;4836669;29;20018;-82
2021/09/30 04:01:52;;;;;;;9.88;1.33;;;11.00;99.90;;;;;;4835449;29;20083;-82
2021/09/30 04:04:17;;;;;;;9.45;0.90;;;11.00;99.90;;;;;;4825691;29;20433;-82
2021/09/30 04:06:43;;;;;;;6.55;1.80;;;10.90;99.90;;;;;;4834657;29;20061;-82
2021/09/30 04:09:09;;;;;;;4.80;1.00;;;11.00;99.90;;;;;;4822955;29;20471;-82
2021/09/30 04:11:35;;;;;;;5.80;1.10;;;11.00;99.90;;;;;;4841399;29;20058;-82
2021/09/30 04:14:01;;;;;;;10.27;1.42;;;11.00;99.90;;;;;;4831625;29;20050;-82
2021/09/30 04:16:27;;;;;;;7.35;1.30;;;11.00;99.90;;;;;;4841685;29;20038;-82
2021/09/30 04:18:53;;;;;;;8.23;1.65;;;11.00;99.90;;;;;;4841323;29;20106;-82
2021/09/30 04:21:19;;;;;;;8.23;1.42;;;11.00;99.90;;;;;;4834351;29;20462;-82
2021/09/30 04:23:44;;;;;;;7.05;1.40;;;11.00;99.90;;;;;;4835198;29;20037;-82
2021/09/30 04:26:10;;;;;;;6.32;1.40;;;11.00;99.90;;;;;;4839962;29;20034;-82
2021/09/30 04:28:36;;;;;;;5.43;1.02;;;11.00;99.90;;;;;;4828647;29;20030;-81
2021/09/30 04:31:02;;;;;;;9.38;1.60;;;10.90;99.90;;;;;;4838301;29;20038;-81
2021/09/30 04:33:27;;;;;;;7.15;1.00;;;10.90;99.90;;;;;;4832785;29;20014;-82
2021/09/30 04:35:53;;;;;;;9.02;1.25;;;10.90;99.90;;;;;;4837644;29;20154;-81
2021/09/30 04:38:19;;;;;;;6.13;1.20;;;10.90;99.90;;;;;;4841638;29;20029;-81
2021/09/30 04:40:45;;;;;;;4.63;1.20;;;10.80;99.90;;;;;;4840553;29;20033;-81
2021/09/30 04:43:10;;;;;;;7.53;2.28;;;10.80;99.90;;;;;;4841298;29;20021;-82
2021/09/30 04:45:36;;;;;;;7.20;1.80;;;10.90;99.90;;;;;;4841667;29;20034;-81
2021/09/30 04:48:02;;;;;;;6.15;1.38;;;10.80;99.90;;;;;;4839359;29;20022;-81
2021/09/30 04:50:28;;;;;;;5.07;1.17;;;10.80;99.90;;;;;;4838144;29;20032;-81
2021/09/30 04:52:58;;;;;;;4.43;1.05;;;10.80;99.90;;;;;;4844016;29;20030;-82
2021/09/30 04:55:23;;;;;;;6.18;1.10;;;10.80;99.90;;;;;;4834307;29;20022;-81
2021/09/30 04:57:49;;;;;;;9.18;1.13;;;10.80;99.90;;;;;;4839961;29;20030;-81
2021/09/30 05:00:15;;;;;;;4.43;1.58;;;10.70;99.90;;;;;;4835761;29;20030;-81
2021/09/30 05:02:41;;;;;;;8.98;1.50;;;10.70;99.90;;;;;;4834615;29;20695;-82
2021/09/30 05:05:07;;;;;;;7.50;1.20;;;10.60;99.90;;;;;;4846275;29;20017;-82
2021/09/30 05:07:32;;;;;;;9.00;1.38;;;10.60;99.90;;;;;;4839261;29;20026;-81
2021/09/30 05:10:01;;;;;;;6.32;1.38;;;10.60;99.90;;;;;;4840563;29;20029;-82
2021/09/30 05:12:26;;;;;;;8.38;1.50;;;10.70;99.90;;;;;;4828015;29;20034;-82
2021/09/30 05:14:53;;;;;;;7.03;1.15;;;10.60;99.90;;;;;;4829466;29;20054;-82
2021/09/30 05:17:19;;;;;;;8.90;1.75;;;10.60;99.90;;;;;;4836311;29;20043;-82
2021/09/30 05:19:44;;;;;;;4.65;1.27;;;10.60;99.90;;;;;;4830197;29;20111;-82
2021/09/30 05:22:10;;;;;;;6.00;1.20;;;10.50;99.90;;;;;;4840764;29;20547;-82
2021/09/30 05:24:35;;;;;;;6.07;1.77;;;10.50;99.90;;;;;;4840842;29;20034;-82
2021/09/30 05:27:01;;;;;;;7.35;1.42;;;10.50;99.90;;;;;;4839785;29;20094;-82
2021/09/30 05:29:27;;;;;;;8.48;1.77;;;10.50;99.90;;;;;;4833938;29;20022;-80
2021/09/30 05:31:53;;;;;;;8.20;1.45;;;10.50;99.90;;;;;;4840064;29;20077;-81
2021/09/30 05:34:18;;;;;;;7.63;1.23;;;10.50;99.90;;;;;;4834565;29;20458;-81
2021/09/30 05:36:44;;;;;;;5.03;1.60;;;10.50;99.90;;;;;;4839892;29;20041;-82
2021/09/30 05:39:10;;;;;;;5.53;1.60;;;10.50;99.90;;;;;;4836597;29;20018;-81
2021/09/30 05:41:35;;;;;;;4.50;1.30;;;10.50;99.90;;;;;;4832111;29;20034;-81
2021/09/30 05:44:08;;;;;;;7.43;1.50;;;10.50;99.90;;;;;;4830532;29;20030;-81
2021/09/30 05:46:54;;;;;;;4.00;1.67;;;10.40;99.90;;;;;;4834865;29;20528;-81
2021/09/30 05:49:23;;;;;;;5.25;1.15;;;10.40;99.90;;;;;;4835641;29;20033;-81
2021/09/30 05:51:49;;;;;;;4.88;1.67;;;10.40;99.90;;;;;;4839508;29;20052;-81
2021/09/30 05:54:15;;;;;;;7.13;1.58;;;10.30;99.90;;;;;;4840019;29;20101;-81
2021/09/30 05:56:41;;;;;;;6.85;1.35;;;10.30;99.90;;;;;;4832344;29;20072;-81
2021/09/30 05:59:07;;;;;;;5.38;1.38;;;10.30;99.90;;;;;;4838716;29;20055;-81
2021/09/30 06:10:19;;;;;;;10.02;1.80;;;10.20;99.90;;;;;;4824549;29;20113;-81
2021/09/30 06:12:21;;;;;;;7.00;1.45;;;10.20;99.90;;;;;;4829285;29;20585;-81
2021/09/30 06:14:47;;;;;;;4.57;1.40;;;10.20;99.90;;;;;;4827426;29;20557;-82
2021/09/30 06:17:13;;;;;;;7.70;2.08;;;10.20;99.90;;;;;;4830070;29;20600;-81
2021/09/30 06:19:39;;;;;;;8.85;1.80;;;10.30;99.90;;;;;;4833375;29;20041;-81
2021/09/30 06:22:07;;;;;;;11.07;1.92;;;10.40;99.90;;;;;;4828847;29;20530;-81
2021/09/30 06:24:34;;;;;;;4.70;1.63;;;10.40;99.90;;;;;;4822011;29;20027;-81
2021/09/30 06:27:00;;;;;;;11.77;2.35;;;10.40;99.90;;;;;;4833604;29;20034;-81
2021/09/30 06:29:27;;;;;;;7.90;2.60;;;10.40;99.90;;;;;;4832441;29;20057;-81
2021/09/30 06:31:52;;;;;;;8.90;3.00;;;10.40;99.90;;;;;;4835723;29;20080;-82
2021/09/30 06:34:18;;;;;;;13.45;2.40;;;10.50;99.90;;;;;;4829367;29;20029;-82
2021/09/30 06:36:44;;;;;;;9.80;2.05;;;10.50;99.90;;;;;;4825868;29;20095;-81
2021/09/30 06:39:09;;;;;;;12.40;2.58;;;10.60;99.90;;;;;;4822890;29;20034;-81
2021/09/30 06:41:36;;;;;;;11.95;2.70;;;10.60;99.90;;;;;;4827684;29;20446;-81
2021/09/30 06:44:01;;;;;;;10.40;2.30;;;10.60;99.90;;;;;;4839108;29;20056;-81
2021/09/30 06:46:27;;;;;;;5.97;2.03;;;10.70;99.90;;;;;;4832568;29;20077;-82
2021/09/30 06:48:53;;;;;;;9.60;2.08;;;10.80;99.90;;;;;;4829163;29;20022;-81
2021/09/30 06:51:19;;;;;;;10.15;1.90;;;10.80;99.90;;;;;;4833902;29;20120;-82
2021/09/30 06:53:45;;;;;;;8.32;1.90;;;10.90;99.90;;;;;;4842444;29;20113;-81
2021/09/30 06:56:14;;;;;;;9.77;2.28;;;10.90;99.90;;;;;;4831495;29;20133;-82
2021/09/30 06:58:44;;;;;;;7.97;1.80;;;10.90;99.90;;;;;;4831586;29;20034;-81
2021/09/30 07:01:12;;;;;;;20.35;2.75;;;11.00;99.90;;;;;;4842399;29;20033;-82
2021/09/30 07:03:38;;;;;;;12.02;2.75;;;11.00;99.90;;;;;;4841553;29;20102;-81
2021/09/30 07:06:04;;;;;;;6.93;1.95;;;11.20;99.90;;;;;;4828604;29;20094;-81
2021/09/30 07:08:30;;;;;;;13.75;2.25;;;11.20;99.90;;;;;;4842614;29;20160;-82
2021/09/30 07:10:56;;;;;;;4.65;1.98;;;11.30;99.90;;;;;;4842212;29;20121;-82
2021/09/30 07:13:22;;;;;;;8.63;2.63;;;11.40;99.90;;;;;;4837488;29;20200;-81
2021/09/30 07:15:49;;;;;;;12.63;2.15;;;11.50;99.90;;;;;;4842043;29;20050;-81
2021/09/30 07:18:20;;;;;;;11.93;3.22;;;11.50;99.90;;;;;;4842327;29;20515;-82
2021/09/30 07:21:00;;;;;;;9.95;2.38;;;11.50;99.90;;;;;;4841735;29;20033;-81
2021/09/30 07:23:27;;;;;;;4.93;1.98;;;11.60;99.90;;;;;;4842220;29;20026;-81
2021/09/30 07:25:53;;;;;;;5.43;2.00;;;11.70;99.90;;;;;;4842076;29;20487;-81
2021/09/30 07:28:19;;;;;;;9.70;2.22;;;11.70;99.90;;;;;;4836372;29;20022;-81
2021/09/30 07:30:46;;;;;;;7.90;1.65;;;11.80;99.90;;;;;;4841680;29;20042;-81
2021/09/30 07:33:12;;;;;;;6.20;2.15;;;11.90;99.90;;;;;;4840861;29;20022;-81
2021/09/30 07:35:38;;;;;;;6.80;1.65;;;12.00;99.90;;;;;;4836681;29;20045;-82
2021/09/30 07:38:04;;;;;;;7.65;1.77;;;12.00;99.90;;;;;;4841882;29;20053;-82
2021/09/30 07:40:31;;;;;;;5.50;1.70;;;12.00;99.90;;;;;;4838751;29;20090;-82
2021/09/30 07:42:57;;;;;;;4.45;1.60;;;12.00;99.90;;;;;;4842054;29;20053;-81
2021/09/30 07:45:23;;;;;;;7.32;1.70;;;12.20;99.90;;;;;;4835888;29;20411;-81
2021/09/30 07:47:49;;;;;;;7.55;1.85;;;12.30;99.90;;;;;;4840430;29;20086;-81
2021/09/30 07:50:14;;;;;;;11.05;2.47;;;12.40;99.90;;;;;;4841512;29;20080;-81
2021/09/30 07:52:40;;;;;;;8.55;1.90;;;12.40;99.90;;;;;;4841439;29;20507;-81
2021/09/30 07:55:06;;;;;;;8.50;2.25;;;12.50;99.90;;;;;;4841799;29;20491;-81
2021/09/30 07:57:32;;;;;;;8.07;2.40;;;12.50;99.90;;;;;;4841389;29;20487;-81
2021/09/30 07:59:58;;;;;;;8.48;1.67;;;12.60;99.90;;;;;;4841321;29;20022;-81
2021/09/30 08:02:23;;;;;;;7.13;1.75;;;12.70;99.90;;;;;;4839006;29;20063;-81
2021/09/30 08:04:49;;;;;;;6.30;2.22;;;12.80;99.90;;;;;;4841109;29;20057;-81
2021/09/30 08:07:15;;;;;;;11.10;2.40;;;12.90;99.90;;;;;;4841330;29;20033;-81
2021/09/30 08:09:41;;;;;;;7.65;2.03;;;13.00;99.90;;;;;;4841205;29;20031;-82
2021/09/30 08:12:07;;;;;;;9.18;2.05;;;13.10;99.90;;;;;;4841143;29;20045;-82
2021/09/30 08:14:33;;;;;;;10.02;2.10;;;13.20;99.90;;;;;;4840965;29;20054;-81
2021/09/30 08:16:59;;;;;;;6.47;1.98;;;13.30;99.90;;;;;;4841050;29;20089;-81
2021/09/30 08:19:25;;;;;;;9.35;2.75;;;13.30;99.90;;;;;;4840948;29;20488;-82
2021/09/30 08:21:50;;;;;;;7.63;2.05;;;13.40;99.90;;;;;;4841007;29;20038;-85
2021/09/30 08:24:18;;;;;;;8.75;2.03;;;13.50;99.90;;;;;;4839842;29;20057;-82
2021/09/30 08:26:46;;;;;;;7.32;1.90;;;13.60;99.90;;;;;;4841063;29;20068;-82
2021/09/30 08:29:13;;;;;;;10.02;2.10;;;13.70;99.90;;;;;;4841178;29;20026;-82
2021/09/30 08:31:38;;;;;;;11.32;2.25;;;13.80;99.90;;;;;;4840631;29;20420;-81
2021/09/30 08:34:04;;;;;;;8.68;1.90;;;13.90;99.90;;;;;;4839867;29;20033;-82
2021/09/30 08:36:31;;;;;;;12.27;2.42;;;13.90;99.90;;;;;;4840645;29;20559;-82
2021/09/30 08:38:58;;;;;;;11.30;1.88;;;14.00;99.90;;;;;;4840572;29;20030;-82
2021/09/30 08:41:23;;;;;;;7.20;1.73;;;14.10;99.90;;;;;;4840686;29;20021;-82
2021/09/30 08:43:50;;;;;;;8.63;1.70;;;14.20;99.90;;;;;;4840668;29;20038;-81
2021/09/30 08:46:17;;;;;;;6.00;1.38;;;14.30;99.90;;;;;;4840834;29;20140;-82
2021/09/30 08:48:43;;;;;;;5.68;1.33;;;14.30;99.90;;;;;;4839192;29;20022;-81
2021/09/30 08:51:10;;;;;;;5.25;1.30;;;14.50;99.90;;;;;;4834384;29;20046;-82
2021/09/30 08:53:36;;;;;;;7.55;1.50;;;14.60;99.90;;;;;;4840368;29;20047;-81
2021/09/30 08:56:05;;;;;;;9.18;1.52;;;14.60;99.90;;;;;;4840592;29;20033;-81
2021/09/30 08:58:32;;;;;;;7.47;1.77;;;14.80;99.90;;;;;;4840715;29;20061;-81
2021/09/30 09:00:58;;;;;;;8.13;1.90;;;14.80;99.90;;;;;;4840510;29;20086;-82
2021/09/30 09:03:35;;;;;;;7.78;1.98;;;14.90;99.90;;;;;;4840314;29;20034;-82
2021/09/30 09:06:01;;;;;;;8.20;1.73;;;15.00;99.90;;;;;;4834980;29;20036;-82
2021/09/30 09:08:27;;;;;;;7.00;1.70;;;15.00;99.90;;;;;;4840517;29;20034;-82
2021/09/30 09:10:56;;;;;;;11.50;1.73;;;15.10;99.90;;;;;;4839995;29;20030;-82
2021/09/30 09:13:22;;;;;;;11.07;1.77;;;15.20;99.90;;;;;;4838302;29;20030;-82
2021/09/30 09:16:04;;;;;;;9.45;1.63;;;15.30;99.90;;;;;;4827706;29;20057;-82
2021/09/30 09:18:38;;;;;;;8.65;1.95;;;15.40;99.90;;;;;;4822005;29;20038;-82
2021/09/30 09:21:20;;;;;;;12.52;1.80;;;15.50;99.90;;;;;;4836971;29;20022;-82
2021/09/30 09:23:52;;;;;;;6.47;1.33;;;15.50;99.90;;;;;;4840004;29;20558;-81
2021/09/30 09:26:22;;;;;;;7.10;1.00;;;15.60;99.90;;;;;;4833947;29;20131;-81
2021/09/30 09:29:10;;;;;;;7.65;1.38;;;15.70;99.90;;;;;;4839979;29;20319;-81
2021/09/30 09:31:48;;;;;;;5.25;1.25;;;15.80;99.90;;;;;;4823315;29;20504;-82
2021/09/30 09:34:39;;;;;;;7.90;1.45;;;15.90;99.90;;;;;;4839705;29;20056;-81
2021/09/30 09:37:30;;;;;;;9.05;1.98;;;16.00;99.90;;;;;;4838569;29;20500;-81
2021/09/30 09:39:58;;;;;;;6.90;1.40;;;16.00;99.90;;;;;;4836731;29;20078;-82
2021/09/30 09:42:30;;;;;;;6.82;1.10;;;16.10;99.90;;;;;;4837423;29;20488;-82
2021/09/30 09:45:02;;;;;;;8.05;1.92;;;16.20;99.90;;;;;;4819673;29;20043;-82
2021/09/30 09:47:28;;;;;;;3.15;1.27;;;16.30;99.90;;;;;;4837985;29;20082;-82
2021/09/30 09:50:08;;;;;;;4.22;1.25;;;16.40;99.90;;;;;;4838313;29;20034;-81
2021/09/30 09:52:52;;;;;;;6.30;1.10;;;16.40;99.90;;;;;;4839717;29;20064;-81
2021/09/30 09:55:42;;;;;;;8.52;1.58;;;16.40;99.90;;;;;;4839849;29;20510;-81
2021/09/30 09:58:07;;;;;;;4.88;0.93;;;16.40;99.90;;;;;;4831135;29;20053;-81
2021/09/30 10:00:49;;;;;;;7.47;1.30;;;16.50;99.90;;;;;;4839010;29;20026;-81
2021/09/30 10:03:22;;;;;;;7.80;1.52;;;16.50;99.90;;;;;;4834252;29;20511;-81
2021/09/30 10:05:49;;;;;;;8.35;1.48;;;16.50;99.90;;;;;;4833875;29;20492;-81
2021/09/30 10:08:16;;;;;;;5.50;0.90;;;16.50;99.90;;;;;;4839567;29;20025;-81
2021/09/30 10:10:44;;;;;;;4.47;0.98;;;16.40;99.90;;;;;;4839207;29;20030;-81
2021/09/30 10:13:10;;;;;;;3.33;1.20;;;16.40;99.90;;;;;;4837794;29;20036;-81
2021/09/30 10:15:37;;;;;;;9.30;0.90;;;16.60;99.90;;;;;;4838055;29;20050;-81
2021/09/30 10:18:04;;;;;;;7.97;1.02;;;16.60;99.90;;;;;;4838352;29;20529;-81
2021/09/30 10:20:32;;;;;;;9.98;1.70;;;16.50;99.90;;;;;;4833476;29;20026;-81
2021/09/30 10:22:58;;;;;;;4.80;1.10;;;16.50;99.90;;;;;;4835840;29;20085;-81
2021/09/30 10:25:36;;;;;;;6.65;1.10;;;16.50;99.90;;;;;;4834199;29;20037;-81
2021/09/30 10:28:06;;;;;;;5.72;1.10;;;16.60;99.90;;;;;;4831792;29;20023;-81
2021/09/30 10:30:47;;;;;;;4.88;1.35;;;16.80;99.90;;;;;;4830413;29;20053;-81
2021/09/30 10:33:15;;;;;;;10.23;1.30;;;16.80;99.90;;;;;;4830249;29;20087;-81
2021/09/30 10:35:50;;;;;;;3.65;0.93;;;16.90;99.90;;;;;;4826305;29;20343;-81
2021/09/30 10:38:24;;;;;;;4.82;1.45;;;17.10;99.90;;;;;;4834698;29;20497;-82
2021/09/30 10:41:01;;;;;;;3.30;0.90;;;17.10;99.90;;;;;;4835860;29;20404;-82
2021/09/30 10:43:47;;;;;;;4.80;0.90;;;17.30;99.90;;;;;;4830026;29;20038;-82
2021/09/30 10:46:22;;;;;;;9.20;1.08;;;17.30;99.90;;;;;;4842937;29;20041;-82
2021/09/30 10:48:50;;;;;;;6.35;1.50;;;17.30;99.90;;;;;;4840006;29;20116;-81
2021/09/30 10:51:17;;;;;;;4.03;0.80;;;17.30;99.90;;;;;;4831935;29;20090;-82
2021/09/30 10:53:45;;;;;;;6.35;1.15;;;17.40;99.90;;;;;;4841295;29;20033;-82
2021/09/30 10:56:49;;;;;;;5.30;0.90;;;17.40;99.90;;;;;;4831945;29;20030;-82
2021/09/30 10:59:19;;;;;;;7.53;1.30;;;17.30;99.90;;;;;;4830967;29;20030;-81
2021/09/30 11:01:52;;;;;;;6.35;1.15;;;17.30;99.90;;;;;;4834402;29;20042;-81
2021/09/30 11:04:19;;;;;;;9.40;1.40;;;17.40;99.90;;;;;;4829768;29;20091;-82
2021/09/30 11:07:17;;;;;;;6.03;0.80;;;17.60;99.90;;;;;;4825537;29;20087;-82
2021/09/30 11:10:14;;;;;;;8.30;1.25;;;17.60;99.90;;;;;;4837080;29;20057;-81
2021/09/30 11:13:19;;;;;;;4.38;1.10;;;17.90;99.60;;;;;;4832771;29;20113;-81
2021/09/30 11:16:09;;;;;;;6.22;0.98;;;18.10;99.90;;;;;;4830221;29;20307;-81
2021/09/30 11:18:50;;;;;;;5.82;1.08;;;18.20;99.70;;;;;;4834544;29;20035;-80
2021/09/30 11:21:28;;;;;;;5.25;1.30;;;18.20;98.60;;;;;;4834479;29;20054;-80
2021/09/30 11:23:55;;;;;;;4.32;1.00;;;18.20;98.20;;;;;;4837562;29;20034;-80
2021/09/30 11:26:21;;;;;;;6.30;2.08;;;18.20;99.00;;;;;;4834777;29;20022;-80
2021/09/30 11:28:47;;;;;;;5.30;1.40;;;18.40;98.10;;;;;;4832959;29;20048;-80
2021/09/30 11:31:31;;;;;;;4.82;1.08;;;18.50;97.70;;;;;;4827880;29;20113;-80
2021/09/30 11:33:59;;;;;;;4.53;0.85;;;18.50;96.60;;;;;;4836859;29;20298;-81
2021/09/30 11:36:33;;;;;;;3.50;1.02;;;18.60;97.00;;;;;;4833018;29;20038;-80
2021/09/30 11:38:59;;;;;;;7.75;1.38;;;18.70;97.80;;;;;;4841625;29;20041;-80
2021/09/30 11:41:33;;;;;;;3.50;0.80;;;18.60;96.30;;;;;;4841432;29;20034;-80
2021/09/30 11:43:59;;;;;;;10.65;1.38;;;18.50;93.50;;;;;;4841582;29;20078;-80
2021/09/30 11:46:28;;;;;;;6.35;0.77;;;18.50;95.60;;;;;;4837133;29;20057;-80
2021/09/30 11:49:08;;;;;;;3.47;1.00;;;18.50;93.60;;;;;;4836290;29;20022;-80
2021/09/30 11:51:41;;;;;;;4.47;0.90;;;18.50;95.20;;;;;;4839925;29;20475;-80
2021/09/30 11:54:19;;;;;;;4.72;1.20;;;18.60;94.00;;;;;;4835557;29;20022;-81
2021/09/30 11:56:54;;;;;;;4.40;1.00;;;18.50;93.20;;;;;;4833736;29;20083;-80
2021/09/30 11:59:23;;;;;;;5.65;1.05;;;18.40;93.30;;;;;;4837810;29;20507;-79
2021/09/30 12:01:53;;;;;;;4.00;0.90;;;18.40;94.70;;;;;;4840938;29;20034;-81
2021/09/30 12:04:39;;;;;;;4.07;0.95;;;18.70;92.20;;;;;;4840673;29;20053;-82
2021/09/30 12:07:23;;;;;;;7.05;0.80;;;18.50;92.80;;;;;;4832776;29;20049;-82
2021/09/30 12:10:00;;;;;;;6.93;1.50;;;18.50;90.30;;;;;;4840747;29;20022;-83
2021/09/30 12:12:34;;;;;;;6.05;0.75;;;18.50;91.10;;;;;;4838542;29;20042;-82
2021/09/30 12:15:00;;;;;;;6.22;0.95;;;18.50;90.60;;;;;;4840261;29;20564;-82
2021/09/30 12:17:35;;;;;;;4.68;0.63;;;18.40;90.60;;;;;;4840561;29;20062;-83
2021/09/30 12:20:03;;;;;;;7.00;1.00;;;18.70;90.50;;;;;;4839188;29;20026;-82
2021/09/30 12:22:42;;;;;;;5.18;1.08;;;19.00;90.30;;;;;;4840406;29;20017;-82
2021/09/30 12:25:25;;;;;;;5.82;1.05;;;19.10;86.40;;;;;;4839506;29;20403;-82
2021/09/30 12:27:54;;;;;;;5.75;0.85;;;18.90;87.90;;;;;;4837525;29;20259;-83
2021/09/30 12:30:27;;;;;;;3.00;0.82;;;18.90;90.20;;;;;;4821568;29;20515;-82
2021/09/30 12:32:59;;;;;;;5.03;1.05;;;19.00;90.00;;;;;;4822161;29;20048;-82
2021/09/30 12:35:34;;;;;;;5.50;0.82;;;18.90;89.70;;;;;;4835337;29;20038;-82
2021/09/30 12:38:03;;;;;;;5.05;0.73;;;18.90;90.60;;;;;;4840152;29;20057;-82
2021/09/30 12:40:34;;;;;;;6.93;0.90;;;19.20;90.60;;;;;;4834848;29;20038;-82
2021/09/30 12:43:16;;;;;;;6.10;1.20;;;19.40;91.70;;;;;;4836720;29;20163;-82
2021/09/30 12:45:46;;;;;;;7.13;1.38;;;19.70;90.00;;;;;;4837570;29;20053;-83
2021/09/30 12:48:20;;;;;;;7.78;1.20;;;19.70;91.20;;;;;;4836561;29;20034;-82
2021/09/30 12:50:57;;;;;;;7.93;1.45;;;19.60;91.00;;;;;;4838397;29;20026;-80
2021/09/30 12:53:24;;;;;;;8.60;1.55;;;19.20;91.80;;;;;;4821926;29;20083;-82
2021/09/30 12:56:01;;;;;;;5.82;1.20;;;19.30;91.50;;;;;;4839747;29;20555;-83
2021/09/30 12:58:30;;;;;;;5.35;1.52;;;19.30;93.00;;;;;;4838068;29;20034;-83
2021/09/30 13:00:59;;;;;;;7.95;1.38;;;19.50;92.50;;;;;;4838525;29;20720;-83
2021/09/30 13:03:25;;;;;;;7.70;1.48;;;19.70;92.30;;;;;;4837433;29;20023;-82
2021/09/30 13:05:53;;;;;;;6.38;1.30;;;19.70;93.00;;;;;;4836041;29;20052;-82
2021/09/30 13:08:41;;;;;;;7.32;1.58;;;19.70;92.20;;;;;;4834961;29;20159;-82
2021/09/30 13:11:30;;;;;;;15.73;4.05;;;19.90;92.80;;;;;;4839087;29;20037;-82
2021/09/30 13:14:22;;;;;;;9.13;1.30;;;19.90;92.30;;;;;;4839135;29;20491;-83
2021/09/30 13:16:53;;;;;;;8.30;1.38;;;19.80;92.30;;;;;;4839237;29;20041;-84
2021/09/30 13:19:20;;;;;;;6.78;1.40;;;19.90;92.80;;;;;;4839370;29;20114;-84
2021/09/30 13:22:03;;;;;;;5.93;1.27;;;19.80;92.50;;;;;;4837503;29;20022;-85
2021/09/30 13:24:33;;;;;;;6.18;1.20;;;19.70;93.10;;;;;;4834292;29;20105;-85
2021/09/30 13:26:59;;;;;;;7.70;1.33;;;19.60;92.80;;;;;;4830904;29;20303;-85
2021/09/30 13:29:24;;;;;;;6.78;1.10;;;19.70;93.00;;;;;;4822454;29;20308;-85
2021/09/30 13:31:50;;;;;;;6.72;1.38;;;20.10;92.40;;;;;;4829689;29;20038;-87
2021/09/30 13:34:17;;;;;;;10.95;1.45;;;20.10;92.50;;;;;;4823309;29;20030;-88
2021/09/30 13:36:43;;;;;;;4.68;1.30;;;19.70;92.50;;;;;;4834376;29;20242;-87
2021/09/30 13:39:08;;;;;;;12.63;2.08;;;19.70;92.60;;;;;;4834234;29;20179;-88
2021/09/30 13:41:34;;;;;;;4.70;0.98;;;19.80;92.50;;;;;;4833336;29;20037;-88
2021/09/30 13:44:00;;;;;;;4.93;0.95;;;19.70;92.40;;;;;;4831518;29;20452;-86
2021/09/30 13:46:25;;;;;;;6.43;1.10;;;20.00;91.10;;;;;;4839605;29;20519;-87
2021/09/30 13:48:51;;;;;;;6.03;0.95;;;19.90;90.70;;;;;;4838840;29;20030;-86
2021/09/30 13:51:17;;;;;;;6.20;0.80;;;19.80;91.00;;;;;;4839042;29;20049;-86
2021/09/30 13:53:42;;;;;;;4.95;0.90;;;19.80;90.40;;;;;;4838939;29;20029;-88
2021/09/30 13:56:08;;;;;;;5.63;1.10;;;20.00;90.60;;;;;;4831400;29;20449;-87
2021/09/30 13:58:35;;;;;;;5.13;1.05;;;20.30;90.60;;;;;;4839275;29;20032;-88
2021/09/30 14:01:02;;;;;;;4.10;0.98;;;20.10;89.60;;;;;;4839437;29;20026;-88
2021/09/30 14:03:27;;;;;;;3.13;0.70;;;19.90;90.90;;;;;;4837869;29;20126;-88
2021/09/30 14:05:53;;;;;;;5.00;0.75;;;20.20;90.10;;;;;;4836012;29;20601;-87
2021/09/30 14:08:19;;;;;;;11.15;1.33;;;20.40;89.60;;;;;;4838925;29;20030;-87
2021/09/30 14:10:46;;;;;;;6.53;0.95;;;20.60;87.20;;;;;;4838360;29;20034;-87
2021/09/30 14:13:16;;;;;;;4.20;0.90;;;20.30;88.50;;;;;;4826048;29;20049;-88
2021/09/30 14:15:43;;;;;;;5.97;0.77;;;20.10;87.60;;;;;;4832049;29;20118;-87
2021/09/30 14:18:09;;;;;;;6.47;0.85;;;20.20;87.60;;;;;;4828579;29;20034;-88
2021/09/30 14:20:35;;;;;;;4.90;0.95;;;20.40;86.50;;;;;;4826836;29;20026;-88
2021/09/30 14:23:01;;;;;;;6.43;0.85;;;20.30;87.00;;;;;;4830573;29;20026;-87
2021/09/30 14:25:26;;;;;;;5.15;0.70;;;20.20;86.90;;;;;;4830203;29;20442;-87
2021/09/30 14:27:52;;;;;;;7.07;1.02;;;19.90;86.10;;;;;;4820373;29;20113;-86
2021/09/30 14:30:18;;;;;;;5.30;1.00;;;20.40;85.20;;;;;;4820432;29;20053;-87
2021/09/30 14:32:44;;;;;;;4.32;0.88;;;20.90;82.80;;;;;;4820183;29;20369;-86
2021/09/30 14:35:10;;;;;;;6.82;0.98;;;20.80;83.30;;;;;;4821734;29;20396;-86
2021/09/30 14:37:35;;;;;;;4.63;0.75;;;21.10;82.40;;;;;;4833997;29;20034;-86
2021/09/30 14:40:02;;;;;;;6.32;1.33;;;21.50;80.70;;;;;;4831825;29;20018;-86
2021/09/30 14:42:28;;;;;;;6.75;0.88;;;21.90;80.70;;;;;;4831162;29;20403;-87
2021/09/30 14:44:56;;;;;;;7.22;0.93;;;22.50;80.50;;;;;;4827971;29;20021;-86
2021/09/30 14:47:22;;;;;;;6.40;0.90;;;23.00;78.70;;;;;;4826974;29;20037;-87
2021/09/30 14:49:48;;;;;;;6.57;1.30;;;23.80;76.80;;;;;;4833734;29;20022;-87
2021/09/30 14:52:13;;;;;;;6.80;1.10;;;23.30;78.90;;;;;;4820068;29;20058;-87
2021/09/30 14:54:40;;;;;;;5.18;1.00;;;23.50;77.10;;;;;;4820687;29;20027;-87
2021/09/30 14:57:06;;;;;;;3.22;0.93;;;24.40;75.30;;;;;;4820212;29;20037;-87
2021/09/30 14:59:32;;;;;;;3.83;0.70;;;25.20;72.70;;;;;;4822834;29;20179;-87
2021/09/30 15:01:59;;;;;;;4.97;1.33;;;27.30;70.60;;;;;;4822758;29;20210;-87
2021/09/30 15:04:25;;;;;;;4.68;1.20;;;27.90;70.00;;;;;;4832078;29;20025;-87
2021/09/30 15:06:50;;;;;;;3.28;0.95;;;28.90;68.10;;;;;;4822537;29;20426;-87
2021/09/30 15:09:17;;;;;;;3.75;0.90;;;30.20;63.60;;;;;;4825770;29;20062;-87
2021/09/30 15:11:43;;;;;;;3.45;0.85;;;31.60;60.50;;;;;;4825278;29;20114;-87
2021/09/30 15:14:09;;;;;;;3.95;1.20;;;32.60;57.00;;;;;;4824642;29;20086;-89
2021/09/30 15:16:40;;;;;;;2.17;0.70;;;34.20;55.90;;;;;;4825433;29;20058;-89
2021/09/30 15:19:17;;;;;;;5.15;1.15;;;34.70;53.80;;;;;;4824689;29;20506;-89
2021/09/30 15:21:43;;;;;;;4.35;1.00;;;36.20;50.80;;;;;;4823644;29;20065;-89
2021/09/30 15:24:09;;;;;;;3.13;1.13;;;34.80;50.60;;;;;;4829939;29;20395;-89
2021/09/30 15:26:36;;;;;;;3.33;0.82;;;35.20;49.20;;;;;;4834034;29;20527;-89
2021/09/30 15:29:03;;;;;;;3.65;0.82;;;34.10;50.00;;;;;;4829945;29;20061;-89
2021/09/30 15:31:30;;;;;;;5.72;1.13;;;34.90;49.30;;;;;;4832569;29;20042;-89
2021/09/30 15:33:58;;;;;;;4.20;0.90;;;35.00;49.10;;;;;;4840819;29;20038;-89
2021/09/30 15:36:24;;;;;;;4.18;1.05;;;34.10;50.10;;;;;;4841600;29;20026;-89
2021/09/30 15:38:50;;;;;;;5.72;1.10;;;35.90;49.30;;;;;;4825351;29;20040;-89
2021/09/30 15:41:18;;;;;;;3.13;0.82;;;35.30;49.00;;;;;;4838222;29;20030;-89